Terminal Aerodrome Forecast
Issued by NWS Mt. Holly, NJ

Home | Current Version | Previous Version | Text Only | Print | Product List | Glossary On
Versions: 1 2 3 4 5 6 7 8 9 10 11 12 13 14 15 16 17 18 19 20 21 22
091
FTUS41 KPHI 240522
TAFACY
TAF
KACY 240522Z 2406/2506 VRB03KT P6SM -SHRA BKN050 OVC100
     FM241400 29004KT P6SM SCT040 BKN100
     FM241600 30008KT P6SM BKN050 OVC100
     FM250000 26004KT P6SM SCT120
     FM250300 00000KT P6SM SKC=

USA.gov is the U.S. government's official web portal to all federal, state and local government web resources and services.